sensor_id;sensor_type;location;lat;lon;timestamp;P1;durP1;ratioP1;P2;durP2;ratioP2
68386;SDS011;55338;43.062;25.624;2022-08-01T00:01:36;9.20;;;7.40;;
68386;SDS011;55338;43.062;25.624;2022-08-01T00:04:02;8.75;;;7.15;;
68386;SDS011;55338;43.062;25.624;2022-08-01T00:06:29;9.63;;;7.25;;
68386;SDS011;55338;43.062;25.624;2022-08-01T00:08:54;9.30;;;7.97;;
68386;SDS011;55338;43.062;25.624;2022-08-01T00:11:20;8.93;;;7.30;;
68386;SDS011;55338;43.062;25.624;2022-08-01T00:13:46;9.25;;;7.68;;
68386;SDS011;55338;43.062;25.624;2022-08-01T00:16:12;9.63;;;7.75;;
68386;SDS011;55338;43.062;25.624;2022-08-01T00:18:38;10.87;;;7.53;;
68386;SDS011;55338;43.062;25.624;2022-08-01T00:21:04;11.23;;;7.13;;
68386;SDS011;55338;43.062;25.624;2022-08-01T00:23:30;10.52;;;6.70;;
68386;SDS011;55338;43.062;25.624;2022-08-01T00:25:56;8.73;;;6.93;;
68386;SDS011;55338;43.062;25.624;2022-08-01T00:28:22;9.00;;;6.95;;
68386;SDS011;55338;43.062;25.624;2022-08-01T00:30:47;10.85;;;7.07;;
68386;SDS011;55338;43.062;25.624;2022-08-01T00:33:13;9.33;;;7.10;;
68386;SDS011;55338;43.062;25.624;2022-08-01T00:35:39;9.50;;;7.10;;
68386;SDS011;55338;43.062;25.624;2022-08-01T00:38:05;11.40;;;7.33;;
68386;SDS011;55338;43.062;25.624;2022-08-01T00:40:30;11.07;;;7.45;;
68386;SDS011;55338;43.062;25.624;2022-08-01T00:42:56;11.20;;;7.57;;
68386;SDS011;55338;43.062;25.624;2022-08-01T00:45:22;14.25;;;7.80;;
68386;SDS011;55338;43.062;25.624;2022-08-01T00:47:48;9.82;;;7.55;;
68386;SDS011;55338;43.062;25.624;2022-08-01T00:50:14;10.67;;;6.80;;
68386;SDS011;55338;43.062;25.624;2022-08-01T00:52:40;10.60;;;7.28;;
68386;SDS011;55338;43.062;25.624;2022-08-01T00:55:07;10.93;;;8.07;;
68386;SDS011;55338;43.062;25.624;2022-08-01T00:57:34;11.13;;;7.13;;
68386;SDS011;55338;43.062;25.624;2022-08-01T01:00:00;10.57;;;7.28;;
68386;SDS011;55338;43.062;25.624;2022-08-01T01:02:26;9.90;;;6.65;;
68386;SDS011;55338;43.062;25.624;2022-08-01T01:04:51;11.17;;;6.60;;
68386;SDS011;55338;43.062;25.624;2022-08-01T01:07:26;9.40;;;6.38;;
68386;SDS011;55338;43.062;25.624;2022-08-01T01:17:59;9.45;;;6.22;;
68386;SDS011;55338;43.062;25.624;2022-08-01T01:20:30;9.07;;;6.10;;
68386;SDS011;55338;43.062;25.624;2022-08-01T01:28:33;9.27;;;5.93;;
68386;SDS011;55338;43.062;25.624;2022-08-01T01:31:18;7.68;;;5.55;;
68386;SDS011;55338;43.062;25.624;2022-08-01T01:33:46;8.40;;;5.53;;
68386;SDS011;55338;43.062;25.624;2022-08-01T01:36:14;9.70;;;5.75;;
68386;SDS011;55338;43.062;25.624;2022-08-01T01:38:45;8.50;;;5.93;;
68386;SDS011;55338;43.062;25.624;2022-08-01T01:41:11;8.27;;;5.37;;
68386;SDS011;55338;43.062;25.624;2022-08-01T01:43:40;8.52;;;5.22;;
68386;SDS011;55338;43.062;25.624;2022-08-01T01:46:07;9.05;;;5.18;;
68386;SDS011;55338;43.062;25.624;2022-08-01T01:48:35;7.65;;;5.15;;
68386;SDS011;55338;43.062;25.624;2022-08-01T01:51:03;7.95;;;4.50;;
68386;SDS011;55338;43.062;25.624;2022-08-01T01:53:30;10.40;;;5.10;;
68386;SDS011;55338;43.062;25.624;2022-08-01T01:55:58;15.20;;;4.75;;
68386;SDS011;55338;43.062;25.624;2022-08-01T01:58:27;6.45;;;4.72;;
68386;SDS011;55338;43.062;25.624;2022-08-01T02:00:56;7.43;;;4.70;;
68386;SDS011;55338;43.062;25.624;2022-08-01T02:03:24;9.70;;;5.40;;
68386;SDS011;55338;43.062;25.624;2022-08-01T02:05:53;7.83;;;4.83;;
68386;SDS011;55338;43.062;25.624;2022-08-01T02:08:20;7.20;;;3.92;;
68386;SDS011;55338;43.062;25.624;2022-08-01T02:10:48;8.95;;;4.47;;
68386;SDS011;55338;43.062;25.624;2022-08-01T02:13:36;6.95;;;3.63;;
68386;SDS011;55338;43.062;25.624;2022-08-01T02:16:04;6.15;;;4.00;;
68386;SDS011;55338;43.062;25.624;2022-08-01T02:18:31;9.23;;;3.67;;
68386;SDS011;55338;43.062;25.624;2022-08-01T02:20:58;6.40;;;4.53;;
68386;SDS011;55338;43.062;25.624;2022-08-01T02:23:27;7.63;;;4.10;;
68386;SDS011;55338;43.062;25.624;2022-08-01T02:25:57;14.68;;;5.72;;
68386;SDS011;55338;43.062;25.624;2022-08-01T02:28:38;11.85;;;4.53;;
68386;SDS011;55338;43.062;25.624;2022-08-01T02:31:16;8.20;;;4.37;;
68386;SDS011;55338;43.062;25.624;2022-08-01T02:33:46;6.70;;;4.10;;
68386;SDS011;55338;43.062;25.624;2022-08-01T02:36:28;5.55;;;3.88;;
68386;SDS011;55338;43.062;25.624;2022-08-01T02:38:55;5.75;;;3.78;;
68386;SDS011;55338;43.062;25.624;2022-08-01T02:41:23;8.00;;;4.22;;
68386;SDS011;55338;43.062;25.624;2022-08-01T02:43:51;6.63;;;4.20;;
68386;SDS011;55338;43.062;25.624;2022-08-01T02:46:22;6.10;;;3.58;;
68386;SDS011;55338;43.062;25.624;2022-08-01T02:48:52;7.72;;;3.80;;
68386;SDS011;55338;43.062;25.624;2022-08-01T02:51:21;6.70;;;4.38;;
68386;SDS011;55338;43.062;25.624;2022-08-01T02:53:49;8.20;;;4.32;;
68386;SDS011;55338;43.062;25.624;2022-08-01T02:56:17;6.37;;;3.80;;
68386;SDS011;55338;43.062;25.624;2022-08-01T02:58:44;7.75;;;3.95;;
68386;SDS011;55338;43.062;25.624;2022-08-01T03:01:12;6.25;;;4.10;;
68386;SDS011;55338;43.062;25.624;2022-08-01T03:03:40;5.40;;;3.65;;
68386;SDS011;55338;43.062;25.624;2022-08-01T03:06:06;10.15;;;4.40;;
68386;SDS011;55338;43.062;25.624;2022-08-01T03:08:33;7.90;;;3.90;;
68386;SDS011;55338;43.062;25.624;2022-08-01T03:11:01;6.93;;;3.70;;
68386;SDS011;55338;43.062;25.624;2022-08-01T03:13:28;5.70;;;4.00;;
68386;SDS011;55338;43.062;25.624;2022-08-01T03:15:56;5.80;;;3.83;;
68386;SDS011;55338;43.062;25.624;2022-08-01T03:18:24;7.47;;;3.95;;
68386;SDS011;55338;43.062;25.624;2022-08-01T03:20:52;8.80;;;4.03;;
68386;SDS011;55338;43.062;25.624;2022-08-01T03:23:19;9.02;;;4.03;;
68386;SDS011;55338;43.062;25.624;2022-08-01T03:25:47;7.10;;;4.00;;
68386;SDS011;55338;43.062;25.624;2022-08-01T03:28:14;6.18;;;4.35;;
68386;SDS011;55338;43.062;25.624;2022-08-01T03:30:41;8.30;;;4.18;;
68386;SDS011;55338;43.062;25.624;2022-08-01T03:33:09;12.27;;;4.60;;
68386;SDS011;55338;43.062;25.624;2022-08-01T03:35:48;5.47;;;3.80;;
68386;SDS011;55338;43.062;25.624;2022-08-01T03:38:19;6.05;;;3.70;;
68386;SDS011;55338;43.062;25.624;2022-08-01T03:40:59;6.70;;;3.65;;
68386;SDS011;55338;43.062;25.624;2022-08-01T03:43:46;9.85;;;4.18;;
68386;SDS011;55338;43.062;25.624;2022-08-01T03:46:20;10.63;;;3.73;;
68386;SDS011;55338;43.062;25.624;2022-08-01T03:48:52;6.03;;;3.63;;
68386;SDS011;55338;43.062;25.624;2022-08-01T03:51:23;11.23;;;3.75;;
68386;SDS011;55338;43.062;25.624;2022-08-01T03:53:50;6.55;;;3.50;;
68386;SDS011;55338;43.062;25.624;2022-08-01T03:56:18;10.25;;;3.63;;
68386;SDS011;55338;43.062;25.624;2022-08-01T03:58:45;6.17;;;3.60;;
68386;SDS011;55338;43.062;25.624;2022-08-01T04:01:12;6.57;;;3.85;;
68386;SDS011;55338;43.062;25.624;2022-08-01T04:03:38;9.30;;;3.55;;
68386;SDS011;55338;43.062;25.624;2022-08-01T04:06:05;10.27;;;3.60;;
68386;SDS011;55338;43.062;25.624;2022-08-01T04:08:36;4.90;;;3.13;;
68386;SDS011;55338;43.062;25.624;2022-08-01T04:11:05;6.40;;;3.53;;
68386;SDS011;55338;43.062;25.624;2022-08-01T04:14:15;6.57;;;3.55;;
68386;SDS011;55338;43.062;25.624;2022-08-01T04:16:41;10.70;;;3.72;;
68386;SDS011;55338;43.062;25.624;2022-08-01T04:19:07;9.10;;;3.30;;
68386;SDS011;55338;43.062;25.624;2022-08-01T04:21:33;6.18;;;3.58;;
68386;SDS011;55338;43.062;25.624;2022-08-01T04:24:09;5.53;;;2.45;;
68386;SDS011;55338;43.062;25.624;2022-08-01T04:26:38;7.10;;;3.43;;
68386;SDS011;55338;43.062;25.624;2022-08-01T04:29:06;6.07;;;3.10;;
68386;SDS011;55338;43.062;25.624;2022-08-01T04:31:33;8.88;;;3.45;;
68386;SDS011;55338;43.062;25.624;2022-08-01T04:34:00;5.50;;;3.00;;
68386;SDS011;55338;43.062;25.624;2022-08-01T04:36:29;8.73;;;3.40;;
68386;SDS011;55338;43.062;25.624;2022-08-01T04:39:00;8.60;;;2.70;;
68386;SDS011;55338;43.062;25.624;2022-08-01T04:41:29;5.60;;;3.35;;
68386;SDS011;55338;43.062;25.624;2022-08-01T04:43:56;10.43;;;2.80;;
68386;SDS011;55338;43.062;25.624;2022-08-01T04:46:24;6.82;;;2.78;;
68386;SDS011;55338;43.062;25.624;2022-08-01T04:48:51;5.38;;;2.70;;
68386;SDS011;55338;43.062;25.624;2022-08-01T04:51:20;8.47;;;4.53;;
68386;SDS011;55338;43.062;25.624;2022-08-01T04:53:47;10.10;;;3.13;;
68386;SDS011;55338;43.062;25.624;2022-08-01T04:56:15;7.57;;;4.10;;
68386;SDS011;55338;43.062;25.624;2022-08-01T04:58:42;15.63;;;6.25;;
68386;SDS011;55338;43.062;25.624;2022-08-01T05:01:08;13.20;;;6.80;;
68386;SDS011;55338;43.062;25.624;2022-08-01T05:03:35;13.17;;;7.80;;
68386;SDS011;55338;43.062;25.624;2022-08-01T05:06:01;13.93;;;8.57;;
68386;SDS011;55338;43.062;25.624;2022-08-01T05:08:27;12.60;;;8.10;;
68386;SDS011;55338;43.062;25.624;2022-08-01T05:10:53;13.45;;;7.47;;
68386;SDS011;55338;43.062;25.624;2022-08-01T05:13:19;9.93;;;4.40;;
68386;SDS011;55338;43.062;25.624;2022-08-01T05:15:45;10.63;;;4.28;;
68386;SDS011;55338;43.062;25.624;2022-08-01T05:18:11;12.37;;;5.63;;
68386;SDS011;55338;43.062;25.624;2022-08-01T05:20:37;19.25;;;7.07;;
68386;SDS011;55338;43.062;25.624;2022-08-01T05:23:06;11.80;;;5.85;;
68386;SDS011;55338;43.062;25.624;2022-08-01T05:25:31;13.77;;;5.97;;
68386;SDS011;55338;43.062;25.624;2022-08-01T05:27:58;7.50;;;4.50;;
68386;SDS011;55338;43.062;25.624;2022-08-01T05:30:24;5.67;;;3.17;;
68386;SDS011;55338;43.062;25.624;2022-08-01T05:32:50;5.15;;;2.88;;
68386;SDS011;55338;43.062;25.624;2022-08-01T05:35:16;11.90;;;5.15;;
68386;SDS011;55338;43.062;25.624;2022-08-01T05:37:41;7.50;;;3.60;;
68386;SDS011;55338;43.062;25.624;2022-08-01T05:40:07;8.80;;;2.63;;
68386;SDS011;55338;43.062;25.624;2022-08-01T05:42:33;7.72;;;4.10;;
68386;SDS011;55338;43.062;25.624;2022-08-01T05:44:59;12.60;;;4.83;;
68386;SDS011;55338;43.062;25.624;2022-08-01T05:47:25;9.18;;;4.65;;
68386;SDS011;55338;43.062;25.624;2022-08-01T05:49:51;8.97;;;5.03;;
68386;SDS011;55338;43.062;25.624;2022-08-01T05:52:17;13.45;;;5.25;;
68386;SDS011;55338;43.062;25.624;2022-08-01T05:54:42;6.20;;;4.00;;
68386;SDS011;55338;43.062;25.624;2022-08-01T05:57:08;7.87;;;2.60;;
68386;SDS011;55338;43.062;25.624;2022-08-01T05:59:34;20.88;;;3.17;;
68386;SDS011;55338;43.062;25.624;2022-08-01T06:02:00;5.80;;;2.50;;
68386;SDS011;55338;43.062;25.624;2022-08-01T06:04:26;15.93;;;4.93;;
68386;SDS011;55338;43.062;25.624;2022-08-01T06:06:52;7.88;;;2.90;;
68386;SDS011;55338;43.062;25.624;2022-08-01T06:09:17;23.33;;;3.10;;
68386;SDS011;55338;43.062;25.624;2022-08-01T06:11:43;4.80;;;2.50;;
68386;SDS011;55338;43.062;25.624;2022-08-01T06:14:09;13.93;;;2.43;;
68386;SDS011;55338;43.062;25.624;2022-08-01T06:16:34;12.93;;;2.40;;
68386;SDS011;55338;43.062;25.624;2022-08-01T06:19:00;7.93;;;2.00;;
68386;SDS011;55338;43.062;25.624;2022-08-01T06:21:26;14.32;;;2.97;;
68386;SDS011;55338;43.062;25.624;2022-08-01T06:23:52;6.88;;;2.38;;
68386;SDS011;55338;43.062;25.624;2022-08-01T06:26:18;10.77;;;2.57;;
68386;SDS011;55338;43.062;25.624;2022-08-01T06:28:44;5.05;;;3.35;;
68386;SDS011;55338;43.062;25.624;2022-08-01T06:31:10;6.10;;;2.00;;
68386;SDS011;55338;43.062;25.624;2022-08-01T06:33:38;4.95;;;2.22;;
68386;SDS011;55338;43.062;25.624;2022-08-01T06:36:04;10.53;;;2.57;;
68386;SDS011;55338;43.062;25.624;2022-08-01T06:38:30;7.47;;;2.22;;
68386;SDS011;55338;43.062;25.624;2022-08-01T06:40:56;5.60;;;2.08;;
68386;SDS011;55338;43.062;25.624;2022-08-01T06:43:22;5.20;;;2.43;;
68386;SDS011;55338;43.062;25.624;2022-08-01T06:45:48;7.47;;;2.67;;
68386;SDS011;55338;43.062;25.624;2022-08-01T06:48:14;6.40;;;2.65;;
68386;SDS011;55338;43.062;25.624;2022-08-01T06:50:40;7.70;;;3.65;;
68386;SDS011;55338;43.062;25.624;2022-08-01T06:53:05;18.73;;;7.50;;
68386;SDS011;55338;43.062;25.624;2022-08-01T06:55:31;21.45;;;7.40;;
68386;SDS011;55338;43.062;25.624;2022-08-01T06:57:57;13.83;;;5.60;;
68386;SDS011;55338;43.062;25.624;2022-08-01T07:00:24;6.60;;;3.70;;
68386;SDS011;55338;43.062;25.624;2022-08-01T07:02:54;5.82;;;3.03;;
68386;SDS011;55338;43.062;25.624;2022-08-01T07:05:21;7.05;;;3.63;;
68386;SDS011;55338;43.062;25.624;2022-08-01T07:07:47;19.30;;;3.85;;
68386;SDS011;55338;43.062;25.624;2022-08-01T07:10:13;4.80;;;2.30;;
68386;SDS011;55338;43.062;25.624;2022-08-01T07:12:39;17.67;;;3.45;;
68386;SDS011;55338;43.062;25.624;2022-08-01T07:15:06;8.68;;;3.95;;
68386;SDS011;55338;43.062;25.624;2022-08-01T07:17:40;11.18;;;7.30;;
68386;SDS011;55338;43.062;25.624;2022-08-01T07:20:08;20.47;;;9.23;;
68386;SDS011;55338;43.062;25.624;2022-08-01T07:22:35;9.55;;;3.75;;
68386;SDS011;55338;43.062;25.624;2022-08-01T07:25:03;16.77;;;5.97;;
68386;SDS011;55338;43.062;25.624;2022-08-01T07:27:30;19.75;;;6.07;;
68386;SDS011;55338;43.062;25.624;2022-08-01T07:29:56;8.83;;;3.43;;
68386;SDS011;55338;43.062;25.624;2022-08-01T07:32:22;7.55;;;3.30;;
68386;SDS011;55338;43.062;25.624;2022-08-01T07:34:47;8.23;;;5.20;;
68386;SDS011;55338;43.062;25.624;2022-08-01T07:37:13;4.22;;;2.47;;
68386;SDS011;55338;43.062;25.624;2022-08-01T07:39:39;6.38;;;2.20;;
68386;SDS011;55338;43.062;25.624;2022-08-01T07:42:05;10.57;;;2.63;;
68386;SDS011;55338;43.062;25.624;2022-08-01T07:44:31;4.50;;;2.05;;
68386;SDS011;55338;43.062;25.624;2022-08-01T07:46:57;5.57;;;2.17;;
68386;SDS011;55338;43.062;25.624;2022-08-01T07:49:22;167.47;;;10.83;;
68386;SDS011;55338;43.062;25.624;2022-08-01T07:51:48;17.15;;;2.25;;
68386;SDS011;55338;43.062;25.624;2022-08-01T07:54:14;9.40;;;2.23;;
68386;SDS011;55338;43.062;25.624;2022-08-01T07:56:40;9.18;;;2.00;;
68386;SDS011;55338;43.062;25.624;2022-08-01T07:59:06;9.82;;;2.15;;
68386;SDS011;55338;43.062;25.624;2022-08-01T08:01:31;5.27;;;2.07;;
68386;SDS011;55338;43.062;25.624;2022-08-01T08:03:57;20.05;;;7.85;;
68386;SDS011;55338;43.062;25.624;2022-08-01T08:06:23;7.20;;;3.07;;
68386;SDS011;55338;43.062;25.624;2022-08-01T08:08:49;6.40;;;2.83;;
68386;SDS011;55338;43.062;25.624;2022-08-01T08:11:15;13.70;;;3.08;;
68386;SDS011;55338;43.062;25.624;2022-08-01T08:13:40;10.80;;;2.90;;
68386;SDS011;55338;43.062;25.624;2022-08-01T08:16:06;7.05;;;3.28;;
68386;SDS011;55338;43.062;25.624;2022-08-01T08:18:32;7.13;;;2.83;;
68386;SDS011;55338;43.062;25.624;2022-08-01T08:20:58;6.25;;;2.60;;
68386;SDS011;55338;43.062;25.624;2022-08-01T08:23:23;5.27;;;2.40;;
68386;SDS011;55338;43.062;25.624;2022-08-01T08:26:09;19.40;;;5.85;;
68386;SDS011;55338;43.062;25.624;2022-08-01T08:28:36;15.43;;;4.38;;
68386;SDS011;55338;43.062;25.624;2022-08-01T08:31:01;38.47;;;7.60;;
68386;SDS011;55338;43.062;25.624;2022-08-01T08:33:28;52.65;;;7.55;;
68386;SDS011;55338;43.062;25.624;2022-08-01T08:35:54;64.70;;;7.93;;
68386;SDS011;55338;43.062;25.624;2022-08-01T08:38:20;49.45;;;9.70;;
68386;SDS011;55338;43.062;25.624;2022-08-01T08:40:45;32.80;;;6.07;;
68386;SDS011;55338;43.062;25.624;2022-08-01T08:43:12;9.27;;;3.78;;
68386;SDS011;55338;43.062;25.624;2022-08-01T08:45:40;3.97;;;2.10;;
68386;SDS011;55338;43.062;25.624;2022-08-01T08:48:06;17.55;;;2.88;;
68386;SDS011;55338;43.062;25.624;2022-08-01T08:50:32;5.38;;;2.50;;
68386;SDS011;55338;43.062;25.624;2022-08-01T08:52:59;3.78;;;2.17;;
68386;SDS011;55338;43.062;25.624;2022-08-01T08:55:26;12.63;;;3.63;;
68386;SDS011;55338;43.062;25.624;2022-08-01T08:57:53;8.93;;;3.30;;
68386;SDS011;55338;43.062;25.624;2022-08-01T09:00:20;3.95;;;2.50;;
68386;SDS011;55338;43.062;25.624;2022-08-01T09:02:47;7.53;;;2.70;;
68386;SDS011;55338;43.062;25.624;2022-08-01T09:05:21;8.60;;;3.40;;
68386;SDS011;55338;43.062;25.624;2022-08-01T09:07:51;12.20;;;2.47;;
68386;SDS011;55338;43.062;25.624;2022-08-01T09:10:17;4.37;;;1.93;;
68386;SDS011;55338;43.062;25.624;2022-08-01T09:13:02;3.72;;;2.25;;
68386;SDS011;55338;43.062;25.624;2022-08-01T09:15:43;3.78;;;2.00;;
68386;SDS011;55338;43.062;25.624;2022-08-01T09:19:04;3.17;;;2.20;;
68386;SDS011;55338;43.062;25.624;2022-08-01T09:26:14;4.60;;;1.83;;
68386;SDS011;55338;43.062;25.624;2022-08-01T09:28:41;7.03;;;2.28;;
68386;SDS011;55338;43.062;25.624;2022-08-01T09:31:09;29.30;;;6.00;;
68386;SDS011;55338;43.062;25.624;2022-08-01T09:33:53;21.42;;;5.53;;
68386;SDS011;55338;43.062;25.624;2022-08-01T09:36:24;12.87;;;4.97;;
68386;SDS011;55338;43.062;25.624;2022-08-01T09:38:51;5.47;;;3.05;;
68386;SDS011;55338;43.062;25.624;2022-08-01T09:41:28;5.05;;;2.30;;
68386;SDS011;55338;43.062;25.624;2022-08-01T09:43:57;3.00;;;1.80;;
68386;SDS011;55338;43.062;25.624;2022-08-01T09:46:24;11.20;;;2.38;;
68386;SDS011;55338;43.062;25.624;2022-08-01T09:48:57;8.37;;;1.70;;
68386;SDS011;55338;43.062;25.624;2022-08-01T09:51:32;3.95;;;1.70;;
68386;SDS011;55338;43.062;25.624;2022-08-01T09:54:00;5.45;;;2.40;;
68386;SDS011;55338;43.062;25.624;2022-08-01T09:56:40;4.40;;;1.98;;
68386;SDS011;55338;43.062;25.624;2022-08-01T09:59:07;6.63;;;2.63;;
68386;SDS011;55338;43.062;25.624;2022-08-01T10:01:49;4.00;;;2.33;;
68386;SDS011;55338;43.062;25.624;2022-08-01T10:04:16;3.85;;;1.90;;
68386;SDS011;55338;43.062;25.624;2022-08-01T10:06:47;3.00;;;1.90;;
68386;SDS011;55338;43.062;25.624;2022-08-01T10:09:31;3.05;;;1.55;;
68386;SDS011;55338;43.062;25.624;2022-08-01T10:12:03;5.03;;;2.20;;
68386;SDS011;55338;43.062;25.624;2022-08-01T10:14:29;3.33;;;2.00;;
68386;SDS011;55338;43.062;25.624;2022-08-01T10:16:56;3.70;;;1.70;;
68386;SDS011;55338;43.062;25.624;2022-08-01T10:19:24;2.88;;;1.77;;
68386;SDS011;55338;43.062;25.624;2022-08-01T10:21:52;3.05;;;1.38;;
68386;SDS011;55338;43.062;25.624;2022-08-01T10:24:22;15.45;;;2.47;;
68386;SDS011;55338;43.062;25.624;2022-08-01T10:26:51;5.40;;;1.50;;
68386;SDS011;55338;43.062;25.624;2022-08-01T10:29:20;9.23;;;2.15;;
68386;SDS011;55338;43.062;25.624;2022-08-01T10:31:47;10.90;;;2.70;;
68386;SDS011;55338;43.062;25.624;2022-08-01T10:34:14;3.55;;;2.10;;
68386;SDS011;55338;43.062;25.624;2022-08-01T10:36:44;3.78;;;1.90;;
68386;SDS011;55338;43.062;25.624;2022-08-01T10:39:11;2.50;;;1.40;;
68386;SDS011;55338;43.062;25.624;2022-08-01T10:41:40;2.30;;;1.50;;
68386;SDS011;55338;43.062;25.624;2022-08-01T10:44:06;4.15;;;1.25;;
68386;SDS011;55338;43.062;25.624;2022-08-01T10:46:34;13.38;;;2.30;;
68386;SDS011;55338;43.062;25.624;2022-08-01T10:49:07;7.57;;;2.10;;
68386;SDS011;55338;43.062;25.624;2022-08-01T10:51:38;3.50;;;1.40;;
68386;SDS011;55338;43.062;25.624;2022-08-01T10:54:06;3.70;;;1.90;;
68386;SDS011;55338;43.062;25.624;2022-08-01T10:56:40;7.85;;;2.10;;
68386;SDS011;55338;43.062;25.624;2022-08-01T10:59:09;4.97;;;3.15;;
68386;SDS011;55338;43.062;25.624;2022-08-01T11:01:39;4.78;;;2.58;;
68386;SDS011;55338;43.062;25.624;2022-08-01T11:04:14;5.33;;;2.17;;
68386;SDS011;55338;43.062;25.624;2022-08-01T11:09:42;2.92;;;1.88;;
68386;SDS011;55338;43.062;25.624;2022-08-01T11:12:10;2.70;;;2.00;;
68386;SDS011;55338;43.062;25.624;2022-08-01T11:20:19;9.43;;;1.52;;
68386;SDS011;55338;43.062;25.624;2022-08-01T11:25:27;4.45;;;2.03;;
68386;SDS011;55338;43.062;25.624;2022-08-01T11:30:52;9.90;;;2.23;;
68386;SDS011;55338;43.062;25.624;2022-08-01T11:43:53;7.45;;;2.00;;
68386;SDS011;55338;43.062;25.624;2022-08-01T11:46:38;3.03;;;1.30;;
68386;SDS011;55338;43.062;25.624;2022-08-01T11:49:29;4.22;;;1.65;;
68386;SDS011;55338;43.062;25.624;2022-08-01T11:54:53;5.33;;;2.10;;
68386;SDS011;55338;43.062;25.624;2022-08-01T11:57:30;3.22;;;1.48;;
68386;SDS011;55338;43.062;25.624;2022-08-01T12:00:00;2.90;;;1.88;;
68386;SDS011;55338;43.062;25.624;2022-08-01T12:02:40;2.50;;;1.52;;
68386;SDS011;55338;43.062;25.624;2022-08-01T12:05:07;2.63;;;1.80;;
68386;SDS011;55338;43.062;25.624;2022-08-01T12:07:35;3.00;;;1.90;;
68386;SDS011;55338;43.062;25.624;2022-08-01T12:12:34;2.90;;;1.70;;
68386;SDS011;55338;43.062;25.624;2022-08-01T12:15:04;3.20;;;1.80;;
68386;SDS011;55338;43.062;25.624;2022-08-01T12:17:40;7.32;;;2.90;;
68386;SDS011;55338;43.062;25.624;2022-08-01T12:20:12;6.10;;;1.87;;
68386;SDS011;55338;43.062;25.624;2022-08-01T12:22:40;3.20;;;1.80;;
68386;SDS011;55338;43.062;25.624;2022-08-01T12:25:07;11.95;;;2.75;;
68386;SDS011;55338;43.062;25.624;2022-08-01T12:27:39;9.60;;;2.03;;
68386;SDS011;55338;43.062;25.624;2022-08-01T12:30:10;3.00;;;1.70;;
68386;SDS011;55338;43.062;25.624;2022-08-01T12:32:38;2.97;;;2.00;;
68386;SDS011;55338;43.062;25.624;2022-08-01T12:35:06;3.20;;;2.13;;
68386;SDS011;55338;43.062;25.624;2022-08-01T12:37:37;3.55;;;2.35;;
68386;SDS011;55338;43.062;25.624;2022-08-01T12:40:14;3.35;;;2.22;;
68386;SDS011;55338;43.062;25.624;2022-08-01T12:42:49;4.72;;;2.47;;
68386;SDS011;55338;43.062;25.624;2022-08-01T12:45:18;10.30;;;5.53;;
68386;SDS011;55338;43.062;25.624;2022-08-01T12:47:46;6.97;;;2.75;;
68386;SDS011;55338;43.062;25.624;2022-08-01T12:50:14;3.10;;;1.67;;
68386;SDS011;55338;43.062;25.624;2022-08-01T12:52:41;6.88;;;2.00;;
68386;SDS011;55338;43.062;25.624;2022-08-01T12:55:09;9.50;;;3.30;;
68386;SDS011;55338;43.062;25.624;2022-08-01T12:57:44;3.30;;;2.17;;
68386;SDS011;55338;43.062;25.624;2022-08-01T13:00:16;5.35;;;2.53;;
68386;SDS011;55338;43.062;25.624;2022-08-01T13:02:47;3.70;;;1.88;;
68386;SDS011;55338;43.062;25.624;2022-08-01T13:05:15;4.38;;;2.10;;
68386;SDS011;55338;43.062;25.624;2022-08-01T13:07:44;4.72;;;2.22;;
68386;SDS011;55338;43.062;25.624;2022-08-01T13:10:10;4.00;;;1.93;;
68386;SDS011;55338;43.062;25.624;2022-08-01T13:12:38;3.25;;;2.22;;
68386;SDS011;55338;43.062;25.624;2022-08-01T13:15:16;10.07;;;4.47;;
68386;SDS011;55338;43.062;25.624;2022-08-01T13:17:51;7.95;;;3.38;;
68386;SDS011;55338;43.062;25.624;2022-08-01T13:20:22;3.30;;;1.75;;
68386;SDS011;55338;43.062;25.624;2022-08-01T13:22:49;3.57;;;2.30;;
68386;SDS011;55338;43.062;25.624;2022-08-01T13:25:16;4.75;;;2.60;;
68386;SDS011;55338;43.062;25.624;2022-08-01T13:27:42;5.07;;;2.50;;
68386;SDS011;55338;43.062;25.624;2022-08-01T13:30:12;4.40;;;2.55;;
68386;SDS011;55338;43.062;25.624;2022-08-01T13:32:42;5.00;;;2.50;;
68386;SDS011;55338;43.062;25.624;2022-08-01T13:35:10;3.13;;;2.17;;
68386;SDS011;55338;43.062;25.624;2022-08-01T13:37:38;5.07;;;2.25;;
68386;SDS011;55338;43.062;25.624;2022-08-01T13:40:06;4.38;;;1.90;;
68386;SDS011;55338;43.062;25.624;2022-08-01T13:42:33;6.60;;;2.03;;
68386;SDS011;55338;43.062;25.624;2022-08-01T13:44:59;2.40;;;1.70;;
68386;SDS011;55338;43.062;25.624;2022-08-01T13:47:25;2.93;;;2.03;;
68386;SDS011;55338;43.062;25.624;2022-08-01T13:49:51;3.42;;;2.30;;
68386;SDS011;55338;43.062;25.624;2022-08-01T13:52:17;5.20;;;2.30;;
68386;SDS011;55338;43.062;25.624;2022-08-01T13:54:43;4.87;;;2.03;;
68386;SDS011;55338;43.062;25.624;2022-08-01T13:57:08;3.92;;;2.05;;
68386;SDS011;55338;43.062;25.624;2022-08-01T13:59:34;3.77;;;2.00;;
68386;SDS011;55338;43.062;25.624;2022-08-01T14:02:00;5.18;;;2.10;;
68386;SDS011;55338;43.062;25.624;2022-08-01T14:04:26;2.30;;;1.42;;
68386;SDS011;55338;43.062;25.624;2022-08-01T14:06:52;4.03;;;2.13;;
68386;SDS011;55338;43.062;25.624;2022-08-01T14:09:18;2.53;;;1.67;;
68386;SDS011;55338;43.062;25.624;2022-08-01T14:11:44;4.70;;;1.95;;
68386;SDS011;55338;43.062;25.624;2022-08-01T14:14:11;4.50;;;2.03;;
68386;SDS011;55338;43.062;25.624;2022-08-01T14:16:37;5.07;;;2.22;;
68386;SDS011;55338;43.062;25.624;2022-08-01T14:19:04;3.50;;;1.80;;
68386;SDS011;55338;43.062;25.624;2022-08-01T14:21:30;5.43;;;2.05;;
68386;SDS011;55338;43.062;25.624;2022-08-01T14:23:56;4.30;;;1.90;;
68386;SDS011;55338;43.062;25.624;2022-08-01T14:26:22;3.83;;;1.87;;
68386;SDS011;55338;43.062;25.624;2022-08-01T14:28:48;3.55;;;2.00;;
68386;SDS011;55338;43.062;25.624;2022-08-01T14:31:13;4.57;;;2.10;;
68386;SDS011;55338;43.062;25.624;2022-08-01T14:33:39;3.10;;;1.93;;
68386;SDS011;55338;43.062;25.624;2022-08-01T14:36:05;5.15;;;1.92;;
68386;SDS011;55338;43.062;25.624;2022-08-01T14:38:32;3.83;;;2.60;;
68386;SDS011;55338;43.062;25.624;2022-08-01T14:40:57;3.10;;;1.97;;
68386;SDS011;55338;43.062;25.624;2022-08-01T14:43:24;5.65;;;2.10;;
68386;SDS011;55338;43.062;25.624;2022-08-01T14:45:51;3.95;;;1.92;;
68386;SDS011;55338;43.062;25.624;2022-08-01T14:48:19;4.57;;;1.92;;
68386;SDS011;55338;43.062;25.624;2022-08-01T14:50:45;3.83;;;1.70;;
68386;SDS011;55338;43.062;25.624;2022-08-01T14:53:11;2.40;;;1.63;;
68386;SDS011;55338;43.062;25.624;2022-08-01T14:55:38;2.85;;;1.98;;
68386;SDS011;55338;43.062;25.624;2022-08-01T14:58:03;2.60;;;1.92;;
68386;SDS011;55338;43.062;25.624;2022-08-01T15:00:29;3.70;;;1.87;;
68386;SDS011;55338;43.062;25.624;2022-08-01T15:02:55;2.97;;;1.67;;
68386;SDS011;55338;43.062;25.624;2022-08-01T15:05:21;2.65;;;1.65;;
68386;SDS011;55338;43.062;25.624;2022-08-01T15:07:47;4.37;;;1.40;;
68386;SDS011;55338;43.062;25.624;2022-08-01T15:10:12;2.80;;;1.80;;
68386;SDS011;55338;43.062;25.624;2022-08-01T15:12:39;3.78;;;2.35;;
68386;SDS011;55338;43.062;25.624;2022-08-01T15:15:04;2.77;;;1.47;;
68386;SDS011;55338;43.062;25.624;2022-08-01T15:17:31;2.75;;;1.75;;
68386;SDS011;55338;43.062;25.624;2022-08-01T15:19:58;3.50;;;1.80;;
68386;SDS011;55338;43.062;25.624;2022-08-01T15:22:28;4.05;;;1.80;;
68386;SDS011;55338;43.062;25.624;2022-08-01T15:24:55;6.83;;;1.80;;
68386;SDS011;55338;43.062;25.624;2022-08-01T15:27:22;2.70;;;1.80;;